createdAt,value
2022-12-19T00:01:43.101Z,3.50
2022-12-19T00:04:12.118Z,3.50
2022-12-19T00:06:43.461Z,3.60
2022-12-19T00:09:12.060Z,3.60
2022-12-19T00:11:39.715Z,3.70
2022-12-19T00:14:07.183Z,3.70
2022-12-19T00:16:34.020Z,3.80
2022-12-19T00:19:01.658Z,3.80
2022-12-19T00:21:31.324Z,3.90
2022-12-19T00:24:02.996Z,3.90
2022-12-19T00:26:32.833Z,4.00
2022-12-19T00:29:07.621Z,4.00
2022-12-19T00:31:37.190Z,4.10
2022-12-19T00:34:04.403Z,4.20
2022-12-19T00:36:34.000Z,4.20
2022-12-19T00:39:02.096Z,4.30
2022-12-19T00:41:36.651Z,4.30
2022-12-19T00:44:09.302Z,4.60
2022-12-19T00:46:36.839Z,4.50
2022-12-19T00:49:05.876Z,4.50
2022-12-19T00:51:34.815Z,4.50
2022-12-19T00:54:02.271Z,4.50
2022-12-19T00:56:37.321Z,4.50
2022-12-19T00:59:07.534Z,4.50
2022-12-19T01:01:38.264Z,4.50
2022-12-19T01:06:58.170Z,4.60
2022-12-19T01:09:35.326Z,4.60
2022-12-19T01:12:24.456Z,4.80
2022-12-19T01:14:54.388Z,4.70
2022-12-19T01:17:24.186Z,4.80
2022-12-19T01:19:53.132Z,4.80
2022-12-19T01:22:19.965Z,4.90
2022-12-19T01:24:46.765Z,4.90
2022-12-19T01:27:15.380Z,4.90
2022-12-19T01:29:52.307Z,4.90
2022-12-19T01:32:21.580Z,5.00
2022-12-19T01:34:48.456Z,5.00
2022-12-19T01:37:15.273Z,5.00
2022-12-19T01:39:41.953Z,5.00
2022-12-19T01:42:23.240Z,5.10
2022-12-19T01:45:07.080Z,5.10
2022-12-19T01:47:41.653Z,5.10
2022-12-19T01:50:19.002Z,5.20
2022-12-19T01:52:47.179Z,5.20
2022-12-19T01:55:14.877Z,5.20
2022-12-19T01:57:41.826Z,5.30
2022-12-19T02:00:09.905Z,5.30
2022-12-19T02:02:48.420Z,5.40
2022-12-19T02:05:16.401Z,5.40
2022-12-19T02:07:44.018Z,5.40
2022-12-19T02:10:11.135Z,5.40
2022-12-19T02:12:40.823Z,5.50
2022-12-19T02:15:10.510Z,5.50
2022-12-19T02:18:20.648Z,5.50
2022-12-19T02:21:18.383Z,5.60
2022-12-19T02:24:23.026Z,5.60
2022-12-19T02:27:21.591Z,5.60
2022-12-19T02:30:07.157Z,5.70
2022-12-19T02:33:24.379Z,5.70
2022-12-19T02:36:01.933Z,5.70
2022-12-19T02:38:53.447Z,5.80
2022-12-19T02:41:45.015Z,5.90
2022-12-19T02:44:41.854Z,5.90
2022-12-19T02:47:09.960Z,5.90
2022-12-19T02:49:38.445Z,5.90
2022-12-19T02:52:33.085Z,6.00
2022-12-19T02:55:04.923Z,6.00
2022-12-19T02:57:33.934Z,6.00
2022-12-19T03:00:04.006Z,6.00
2022-12-19T03:03:00.479Z,6.10
2022-12-19T03:05:46.469Z,6.10
2022-12-19T03:08:33.288Z,6.20
2022-12-19T03:11:09.017Z,6.20
2022-12-19T03:13:44.255Z,6.20
2022-12-19T03:16:12.824Z,6.20
2022-12-19T03:18:40.065Z,6.30
2022-12-19T03:21:20.589Z,6.30
2022-12-19T03:23:49.438Z,6.30
2022-12-19T03:26:19.721Z,6.30
2022-12-19T03:29:06.665Z,6.40
2022-12-19T03:31:34.967Z,6.40
2022-12-19T03:34:20.230Z,6.40
2022-12-19T03:36:52.785Z,6.40
2022-12-19T03:39:21.641Z,6.50
2022-12-19T03:42:09.685Z,6.50
2022-12-19T03:44:40.891Z,6.50
2022-12-19T03:47:22.972Z,6.50
2022-12-19T03:49:51.153Z,6.60
2022-12-19T03:52:30.105Z,6.60
2022-12-19T03:55:16.430Z,6.60
2022-12-19T03:57:49.299Z,6.70
2022-12-19T04:00:18.857Z,6.60
2022-12-19T04:02:54.595Z,6.70
2022-12-19T04:05:25.728Z,6.70
2022-12-19T04:08:03.939Z,6.80
2022-12-19T04:10:32.320Z,6.80
2022-12-19T04:13:03.700Z,6.80
2022-12-19T04:15:48.759Z,6.80
2022-12-19T04:18:18.679Z,6.80
2022-12-19T04:20:55.436Z,6.80
2022-12-19T04:23:36.522Z,6.70
2022-12-19T04:26:05.261Z,6.90
2022-12-19T04:28:38.075Z,6.90
2022-12-19T04:31:06.800Z,6.90
2022-12-19T04:33:33.741Z,7.00
2022-12-19T04:36:00.657Z,7.00
2022-12-19T04:38:27.720Z,7.00
2022-12-19T04:40:54.554Z,7.00
2022-12-19T04:43:21.452Z,7.00
2022-12-19T04:45:50.649Z,7.10
2022-12-19T04:48:20.790Z,7.10
2022-12-19T04:50:47.611Z,7.10
2022-12-19T04:53:14.372Z,7.10
2022-12-19T04:55:41.230Z,7.10
2022-12-19T04:58:08.225Z,7.20
2022-12-19T05:00:35.339Z,7.20
2022-12-19T05:03:02.386Z,7.20
2022-12-19T05:05:29.445Z,7.20
2022-12-19T05:07:56.101Z,7.20
2022-12-19T05:10:22.985Z,7.20
2022-12-19T05:12:49.699Z,7.30
2022-12-19T05:15:17.072Z,7.30
2022-12-19T05:17:43.927Z,7.30
2022-12-19T05:20:11.407Z,7.40
2022-12-19T05:22:38.112Z,7.40
2022-12-19T05:25:05.501Z,7.40
2022-12-19T05:27:32.368Z,7.40
2022-12-19T05:29:59.189Z,7.50
2022-12-19T05:32:25.944Z,7.50
2022-12-19T05:34:52.718Z,7.50
2022-12-19T05:37:19.594Z,7.50
2022-12-19T05:39:46.232Z,7.50
2022-12-19T05:42:12.966Z,7.50
2022-12-19T05:44:39.816Z,7.60
2022-12-19T05:47:06.751Z,7.60
2022-12-19T05:49:33.551Z,7.60
2022-12-19T05:52:00.298Z,7.60
2022-12-19T05:54:27.030Z,7.60
2022-12-19T05:56:53.771Z,7.60
2022-12-19T05:59:20.662Z,7.60
2022-12-19T06:01:47.372Z,7.60
2022-12-19T06:04:14.102Z,7.70
2022-12-19T06:06:41.420Z,7.70
2022-12-19T06:09:08.247Z,7.80
2022-12-19T06:11:35.137Z,7.80
2022-12-19T06:14:02.064Z,7.80
2022-12-19T06:16:28.916Z,7.80
2022-12-19T06:18:55.693Z,7.80
2022-12-19T06:21:23.632Z,7.90
2022-12-19T06:23:50.857Z,7.90
2022-12-19T06:26:20.790Z,7.90
2022-12-19T06:28:48.757Z,7.90
2022-12-19T06:31:16.387Z,7.90
2022-12-19T06:33:43.413Z,7.90
2022-12-19T06:36:19.633Z,7.70
2022-12-19T06:38:47.230Z,7.90
2022-12-19T06:41:34.708Z,7.90
2022-12-19T06:44:09.011Z,7.90
2022-12-19T06:46:39.530Z,8.00
2022-12-19T06:49:07.829Z,8.00
2022-12-19T06:51:34.837Z,8.00
2022-12-19T06:54:02.965Z,8.00
2022-12-19T06:56:37.646Z,8.10
2022-12-19T06:59:05.574Z,8.10
2022-12-19T07:01:52.441Z,8.10
2022-12-19T07:04:26.796Z,8.20
2022-12-19T07:06:54.218Z,8.20
2022-12-19T07:09:21.534Z,8.20
2022-12-19T07:11:48.375Z,8.20
2022-12-19T07:14:15.209Z,8.20
2022-12-19T07:16:42.606Z,8.30
2022-12-19T07:19:09.930Z,8.20
2022-12-19T07:21:38.818Z,8.30
2022-12-19T07:24:08.764Z,8.30
2022-12-19T07:26:36.036Z,8.30
2022-12-19T07:29:05.305Z,8.30
2022-12-19T07:31:32.787Z,8.40
2022-12-19T07:33:59.897Z,8.40
2022-12-19T07:36:26.996Z,8.40
2022-12-19T07:38:56.713Z,8.40
2022-12-19T07:41:23.940Z,8.40
2022-12-19T07:43:50.694Z,8.50
2022-12-19T07:46:17.704Z,8.50
2022-12-19T07:48:44.500Z,8.60
2022-12-19T07:51:11.312Z,8.60
2022-12-19T07:53:39.167Z,8.60
2022-12-19T07:56:06.312Z,8.60
2022-12-19T07:58:33.683Z,8.60
2022-12-19T08:01:01.356Z,8.70
2022-12-19T08:03:28.457Z,8.70
2022-12-19T08:06:01.016Z,8.70
2022-12-19T08:08:28.669Z,8.70
2022-12-19T08:10:55.377Z,8.70
2022-12-19T08:13:22.147Z,8.80
2022-12-19T08:15:53.594Z,8.80
2022-12-19T08:18:23.791Z,8.80
2022-12-19T08:20:53.899Z,8.80
2022-12-19T08:23:20.783Z,8.80
2022-12-19T08:25:47.524Z,8.90
2022-12-19T08:28:14.243Z,8.90
2022-12-19T08:30:41.541Z,8.90
2022-12-19T08:33:08.402Z,8.90
2022-12-19T08:35:36.627Z,9.00
2022-12-19T08:38:03.309Z,9.00
2022-12-19T08:40:30.178Z,9.00
2022-12-19T08:42:56.896Z,9.10
2022-12-19T08:45:23.701Z,9.10
2022-12-19T08:47:50.604Z,9.10
2022-12-19T08:50:17.322Z,9.10
2022-12-19T08:52:44.102Z,9.20
2022-12-19T08:55:12.258Z,9.20
2022-12-19T08:57:39.197Z,9.20
2022-12-19T09:00:06.822Z,9.30
2022-12-19T09:02:34.551Z,9.30
2022-12-19T09:05:59.734Z,9.40
2022-12-19T09:07:48.175Z,9.40
2022-12-19T09:10:14.986Z,9.50
2022-12-19T09:12:42.692Z,9.50
2022-12-19T09:15:10.045Z,9.50
2022-12-19T09:17:36.886Z,9.60
2022-12-19T09:20:04.794Z,9.60
2022-12-19T09:22:31.670Z,9.70
2022-12-19T09:24:58.609Z,9.70
2022-12-19T09:27:25.484Z,9.70
2022-12-19T09:29:52.275Z,9.70
2022-12-19T09:32:18.983Z,9.70
2022-12-19T09:34:46.092Z,9.70
2022-12-19T09:37:16.688Z,9.70
2022-12-19T09:39:47.938Z,9.70
2022-12-19T09:42:51.659Z,9.70
2022-12-19T09:45:50.851Z,9.70
2022-12-19T09:48:24.425Z,9.70
2022-12-19T09:51:10.449Z,9.70
2022-12-19T09:53:58.491Z,9.60
2022-12-19T09:56:30.084Z,9.60
2022-12-19T09:59:13.212Z,9.50
2022-12-19T10:02:05.979Z,9.50
2022-12-19T10:04:36.204Z,9.40
2022-12-19T10:07:20.456Z,9.30
2022-12-19T10:12:16.931Z,9.30
2022-12-19T10:12:51.293Z,9.30
2022-12-19T10:15:42.318Z,9.20
2022-12-19T10:18:17.998Z,9.20
2022-12-19T10:21:05.899Z,9.20
2022-12-19T10:24:15.911Z,9.20
2022-12-19T10:26:59.226Z,9.20
2022-12-19T10:29:51.102Z,9.30
2022-12-19T10:32:36.575Z,9.20
2022-12-19T10:35:13.590Z,9.30
2022-12-19T10:38:20.389Z,9.20
2022-12-19T10:41:21.917Z,9.30
2022-12-19T10:44:02.480Z,9.30
2022-12-19T10:46:36.366Z,9.40
2022-12-19T10:49:19.124Z,9.50
2022-12-19T10:52:04.502Z,9.50
2022-12-19T10:54:37.508Z,9.60
2022-12-19T10:57:25.593Z,9.60
2022-12-19T10:59:56.343Z,9.70
2022-12-19T11:02:44.725Z,9.70
2022-12-19T11:05:24.082Z,9.80
2022-12-19T11:08:06.316Z,9.80
2022-12-19T11:11:28.963Z,9.80
2022-12-19T11:18:08.686Z,9.90
2022-12-19T11:23:23.397Z,9.90
2022-12-19T11:29:33.928Z,9.90
2022-12-19T11:29:34.802Z,9.90
2022-12-19T11:30:21.353Z,10.10
2022-12-19T11:30:26.149Z,10.00
2022-12-19T11:32:31.525Z,10.30
2022-12-19T11:34:23.847Z,10.40
2022-12-19T11:37:01.526Z,10.50
2022-12-19T11:39:36.746Z,10.60
2022-12-19T11:42:20.675Z,10.60
2022-12-19T11:44:58.857Z,10.70
2022-12-19T11:47:44.035Z,10.70
2022-12-19T11:50:15.662Z,10.80
2022-12-19T11:53:07.742Z,10.80
2022-12-19T11:55:52.813Z,10.80
2022-12-19T11:58:19.776Z,10.90
2022-12-19T12:00:58.489Z,10.70
2022-12-19T12:04:00.351Z,10.60
2022-12-19T12:06:39.906Z,10.60
2022-12-19T12:11:06.115Z,10.50
2022-12-19T12:20:29.935Z,10.50
2022-12-19T12:30:59.334Z,10.50
2022-12-19T12:31:04.529Z,10.50
2022-12-19T12:31:26.255Z,10.50
2022-12-19T12:31:40.355Z,10.60
2022-12-19T12:31:52.226Z,10.60
2022-12-19T12:35:31.530Z,10.70
2022-12-19T12:38:28.400Z,10.70
2022-12-19T12:41:14.002Z,10.80
2022-12-19T12:43:43.884Z,10.70
2022-12-19T12:46:24.198Z,10.80
2022-12-19T12:48:57.201Z,10.70
2022-12-19T12:51:25.619Z,10.70
2022-12-19T12:54:11.156Z,10.80
2022-12-19T12:56:39.547Z,10.70
2022-12-19T12:59:21.477Z,10.80
2022-12-19T13:02:13.713Z,10.80
2022-12-19T13:04:56.135Z,10.80
2022-12-19T13:07:41.763Z,10.80
2022-12-19T13:10:20.968Z,10.80
2022-12-19T13:13:00.768Z,10.80
2022-12-19T13:15:27.499Z,10.70
2022-12-19T13:17:54.247Z,10.80
2022-12-19T13:20:23.919Z,10.80
2022-12-19T13:22:58.339Z,10.70
2022-12-19T13:25:49.025Z,10.80
2022-12-19T13:28:21.676Z,10.90
2022-12-19T13:31:21.188Z,10.80
2022-12-19T13:33:52.038Z,10.70
2022-12-19T13:39:50.748Z,10.80
2022-12-19T13:40:20.407Z,10.90
2022-12-19T13:43:24.331Z,10.90
2022-12-19T13:45:59.469Z,10.90
2022-12-19T13:48:44.628Z,10.80
2022-12-19T13:51:13.458Z,11.00
2022-12-19T13:54:02.482Z,11.00
2022-12-19T13:56:31.027Z,11.10
2022-12-19T13:59:01.699Z,11.10
2022-12-19T14:01:33.453Z,11.10
2022-12-19T14:04:08.732Z,11.20
2022-12-19T14:06:40.530Z,11.20
2022-12-19T14:11:27.196Z,11.20
2022-12-19T14:12:27.034Z,11.30
2022-12-19T14:15:14.218Z,11.40
2022-12-19T14:17:47.999Z,11.30
2022-12-19T14:22:02.495Z,11.20
2022-12-19T14:23:06.721Z,11.20
2022-12-19T14:28:15.352Z,11.40
2022-12-19T14:29:08.735Z,11.50
2022-12-19T14:32:23.966Z,11.60
2022-12-19T14:35:03.885Z,11.30
2022-12-19T14:38:44.815Z,11.30
2022-12-19T14:40:27.555Z,11.10
2022-12-19T14:43:56.379Z,11.10
2022-12-19T14:52:51.076Z,11.10
2022-12-19T14:54:04.228Z,11.00
2022-12-19T14:54:37.571Z,11.00
2022-12-19T14:56:08.862Z,11.00
2022-12-19T14:58:55.530Z,11.10
2022-12-19T15:01:24.163Z,11.00
2022-12-19T15:04:47.873Z,11.00
2022-12-19T15:07:08.624Z,11.00
2022-12-19T15:11:06.718Z,11.00
2022-12-19T15:14:48.362Z,11.10
2022-12-19T15:16:07.254Z,10.90
2022-12-19T15:18:34.216Z,10.90
2022-12-19T15:21:04.085Z,10.90
2022-12-19T15:23:33.118Z,10.90
2022-12-19T15:26:12.009Z,11.00
2022-12-19T15:28:41.162Z,10.90
2022-12-19T15:31:40.998Z,10.90
2022-12-19T15:36:58.049Z,10.90
2022-12-19T15:39:26.482Z,10.90
2022-12-19T15:41:54.691Z,10.80
2022-12-19T15:44:35.798Z,10.80
2022-12-19T15:47:05.264Z,10.80
2022-12-19T15:49:34.904Z,10.80
2022-12-19T15:52:02.662Z,10.80
2022-12-19T15:57:38.711Z,10.80
2022-12-19T16:00:15.891Z,10.80
2022-12-19T16:03:21.203Z,10.80
2022-12-19T16:05:29.854Z,10.70
2022-12-19T16:07:58.570Z,10.60
2022-12-19T16:10:28.590Z,10.60
2022-12-19T16:12:57.941Z,10.40
2022-12-19T16:15:30.596Z,10.40
2022-12-19T16:17:59.480Z,10.40
2022-12-19T16:20:33.289Z,10.50
2022-12-19T16:23:00.148Z,10.50
2022-12-19T16:25:37.053Z,10.40
2022-12-19T16:28:05.769Z,10.40
2022-12-19T16:30:34.298Z,10.40
2022-12-19T16:33:01.462Z,10.30
2022-12-19T16:36:02.602Z,10.20
2022-12-19T16:38:17.432Z,10.20
2022-12-19T16:40:45.285Z,10.20
2022-12-19T16:43:40.235Z,10.10
2022-12-19T16:46:08.529Z,10.20
2022-12-19T16:48:38.345Z,10.20
2022-12-19T16:51:05.155Z,10.20
2022-12-19T16:53:31.987Z,10.10
2022-12-19T16:56:00.009Z,10.10
2022-12-19T16:58:28.082Z,10.10
2022-12-19T17:00:55.481Z,10.10
2022-12-19T17:03:31.617Z,10.10
2022-12-19T17:05:58.471Z,10.00
2022-12-19T17:08:25.272Z,10.20
2022-12-19T17:10:53.512Z,10.30
2022-12-19T17:13:21.688Z,10.40
2022-12-19T17:15:56.071Z,10.50
2022-12-19T17:18:34.662Z,10.60
2022-12-19T17:21:01.857Z,10.60
2022-12-19T17:23:32.181Z,10.60
2022-12-19T17:26:01.959Z,10.60
2022-12-19T17:28:29.312Z,10.60
2022-12-19T17:30:58.925Z,10.60
2022-12-19T17:33:33.277Z,10.70
2022-12-19T17:36:01.640Z,10.70
2022-12-19T17:38:28.439Z,10.70
2022-12-19T17:40:55.409Z,10.80
2022-12-19T17:43:22.229Z,10.80
2022-12-19T17:45:50.545Z,10.80
2022-12-19T17:48:28.527Z,10.80
2022-12-19T17:50:55.882Z,10.80
2022-12-19T17:53:23.314Z,10.80
2022-12-19T17:55:50.667Z,10.80
2022-12-19T17:58:17.499Z,10.90
2022-12-19T18:00:46.953Z,10.90
2022-12-19T18:03:31.988Z,10.90
2022-12-19T18:05:58.714Z,10.80
2022-12-19T18:08:29.177Z,10.80
2022-12-19T18:10:58.596Z,10.80
2022-12-19T18:13:27.057Z,10.80
2022-12-19T18:15:58.280Z,10.80
2022-12-19T18:18:36.003Z,10.80
2022-12-19T18:21:03.256Z,10.80
2022-12-19T18:23:32.919Z,10.80
2022-12-19T18:26:02.307Z,10.70
2022-12-19T18:28:29.608Z,10.60
2022-12-19T18:31:20.205Z,10.50
2022-12-19T18:33:48.021Z,10.40
2022-12-19T18:36:42.383Z,10.50
2022-12-19T18:39:20.891Z,10.40
2022-12-19T18:41:48.002Z,10.30
2022-12-19T18:44:14.798Z,10.30
2022-12-19T18:46:41.776Z,10.40
2022-12-19T18:49:16.777Z,10.40
2022-12-19T18:51:44.752Z,10.50
2022-12-19T18:54:14.081Z,10.30
2022-12-19T18:56:40.819Z,10.30
2022-12-19T18:59:07.632Z,10.30
2022-12-19T19:01:36.519Z,10.30
2022-12-19T19:04:03.555Z,10.30
2022-12-19T19:06:35.688Z,10.30
2022-12-19T19:09:04.543Z,10.30
2022-12-19T19:11:51.732Z,10.20
2022-12-19T19:14:18.565Z,10.30
2022-12-19T19:16:46.068Z,10.30
2022-12-19T19:19:17.227Z,10.30
2022-12-19T19:21:44.196Z,10.30
2022-12-19T19:24:14.626Z,10.30
2022-12-19T19:26:41.934Z,10.30
2022-12-19T19:29:09.945Z,10.30
2022-12-19T19:31:40.257Z,10.20
2022-12-19T19:34:16.390Z,10.30
2022-12-19T19:36:47.071Z,10.20
2022-12-19T19:39:14.074Z,10.30
2022-12-19T19:41:41.010Z,10.30
2022-12-19T19:44:07.902Z,10.30
2022-12-19T19:46:34.717Z,10.30
2022-12-19T19:49:01.461Z,10.50
2022-12-19T19:51:28.906Z,10.30
2022-12-19T19:53:59.340Z,10.30
2022-12-19T19:56:26.483Z,10.30
2022-12-19T19:58:55.132Z,10.30
2022-12-19T20:01:22.366Z,10.30
2022-12-19T20:03:49.654Z,10.30
2022-12-19T20:06:16.708Z,10.40
2022-12-19T20:08:43.422Z,10.20
2022-12-19T20:11:10.812Z,10.20
2022-12-19T20:13:41.311Z,10.20
2022-12-19T20:16:15.475Z,10.20
2022-12-19T20:18:46.770Z,10.20
2022-12-19T20:21:14.108Z,10.30
2022-12-19T20:23:43.576Z,10.30
2022-12-19T20:26:12.518Z,10.30
2022-12-19T20:28:47.919Z,10.30
2022-12-19T20:31:20.573Z,10.40
2022-12-19T20:33:48.449Z,10.40
2022-12-19T20:36:15.899Z,10.40
2022-12-19T20:38:43.009Z,10.40
2022-12-19T20:41:10.410Z,10.50
2022-12-19T20:43:38.381Z,10.40
2022-12-19T20:46:08.491Z,10.50
2022-12-19T20:48:35.812Z,10.50
2022-12-19T20:51:04.671Z,10.40
2022-12-19T20:53:32.662Z,10.40
2022-12-19T20:56:00.723Z,10.40
2022-12-19T20:58:29.086Z,10.30
2022-12-19T21:01:06.786Z,10.30
2022-12-19T21:03:34.789Z,10.30
2022-12-19T21:06:01.805Z,10.30
2022-12-19T21:08:29.136Z,10.30
2022-12-19T21:10:56.222Z,10.30
2022-12-19T21:13:23.607Z,10.30
2022-12-19T21:15:58.714Z,10.40
2022-12-19T21:18:27.092Z,10.40
2022-12-19T21:20:55.468Z,10.50
2022-12-19T21:23:23.923Z,10.50
2022-12-19T21:25:50.787Z,10.50
2022-12-19T21:28:17.713Z,10.60
2022-12-19T21:33:38.446Z,10.50
2022-12-19T21:36:11.130Z,10.50
2022-12-19T21:38:38.472Z,10.50
2022-12-19T21:41:07.454Z,10.80
2022-12-19T21:43:35.669Z,10.60
2022-12-19T21:46:11.282Z,10.60
2022-12-19T21:48:40.727Z,10.60
2022-12-19T21:51:08.778Z,10.70
2022-12-19T21:53:36.755Z,10.70
2022-12-19T21:56:05.646Z,10.80
2022-12-19T21:58:32.472Z,10.90
2022-12-19T22:01:08.423Z,10.80
2022-12-19T22:03:36.536Z,10.80
2022-12-19T22:06:03.976Z,10.90
2022-12-19T22:08:31.915Z,10.90
2022-12-19T22:10:58.640Z,10.70
2022-12-19T22:13:25.753Z,10.80
2022-12-19T22:15:52.647Z,10.80
2022-12-19T22:18:19.906Z,10.70
2022-12-19T22:20:46.691Z,10.60
2022-12-19T22:23:14.560Z,10.60
2022-12-19T22:25:41.426Z,10.60
2022-12-19T22:28:08.228Z,10.60
2022-12-19T22:30:36.938Z,10.50
2022-12-19T22:33:04.501Z,10.40
2022-12-19T22:35:34.381Z,10.50
2022-12-19T22:38:01.354Z,10.50
2022-12-19T22:40:28.325Z,10.50
2022-12-19T22:42:55.102Z,10.60
2022-12-19T22:45:21.947Z,10.60
2022-12-19T22:47:48.630Z,10.70
2022-12-19T22:50:17.002Z,10.60
2022-12-19T22:52:43.937Z,10.60
2022-12-19T22:55:11.045Z,10.70
2022-12-19T22:57:37.947Z,10.70
2022-12-19T23:00:09.707Z,10.60
2022-12-19T23:02:40.119Z,10.70
2022-12-19T23:05:07.327Z,10.70
2022-12-19T23:07:35.116Z,10.70
2022-12-19T23:10:03.303Z,10.80
2022-12-19T23:12:30.093Z,10.80
2022-12-19T23:14:58.051Z,10.90
2022-12-19T23:17:24.780Z,11.00
2022-12-19T23:19:51.746Z,11.00
2022-12-19T23:22:20.330Z,11.10
2022-12-19T23:24:48.044Z,11.10
2022-12-19T23:27:15.383Z,11.10
2022-12-19T23:29:42.806Z,11.20
2022-12-19T23:32:10.555Z,11.20
2022-12-19T23:34:37.719Z,11.30
2022-12-19T23:37:12.609Z,11.30
2022-12-19T23:39:39.689Z,11.40
2022-12-19T23:42:06.448Z,11.40
2022-12-19T23:44:33.406Z,11.40
2022-12-19T23:47:03.317Z,11.40
2022-12-19T23:49:30.788Z,11.50
2022-12-19T23:51:57.588Z,11.60
2022-12-19T23:54:24.415Z,11.60
2022-12-19T23:56:53.288Z,11.50
2022-12-19T23:59:20.078Z,11.60
